Time;durP1;ratioP1;P1;durP2;ratioP2;P2;SDS_P1;SDS_P2;PMS_P1;PMS_P2;Temp;Humidity;BMP_temperature;BMP_pressure;BME280_temperature;BME280_humidity;BME280_pressure;Samples;Min_cycle;Max_cycle;Signal;HPM_P1;HPM_P2
2022/09/25 00:01:11;;;;;;;2.95;0.60;;;10.30;99.90;;;;;;4995531;28;20068;-77
2022/09/25 00:03:37;;;;;;;5.22;0.70;;;10.50;99.90;;;;;;4995134;28;20026;-77
2022/09/25 00:06:12;;;;;;;1.10;0.50;;;10.60;99.90;;;;;;4995216;28;20080;-77
2022/09/25 00:08:38;;;;;;;5.82;0.63;;;10.80;99.90;;;;;;4995028;28;20023;-77
2022/09/25 00:11:16;;;;;;;3.70;0.60;;;10.90;99.90;;;;;;4994915;28;20033;-77
2022/09/25 00:13:43;;;;;;;2.00;0.68;;;10.90;99.90;;;;;;4994996;28;20026;-77
2022/09/25 00:16:11;;;;;;;3.88;0.93;;;11.00;99.90;;;;;;4995003;28;20018;-77
2022/09/25 00:21:21;;;;;;;3.30;0.80;;;10.80;99.90;;;;;;4994966;28;20065;-78
2022/09/25 00:23:47;;;;;;;4.90;0.70;;;10.70;99.90;;;;;;4994660;28;20058;-77
2022/09/25 00:26:16;;;;;;;2.15;0.55;;;10.70;99.90;;;;;;4993715;28;20053;-77
2022/09/25 00:28:42;;;;;;;3.17;0.60;;;10.60;99.90;;;;;;4994823;28;20064;-77
2022/09/25 00:31:08;;;;;;;2.15;0.57;;;10.50;99.90;;;;;;5013051;28;20034;-77
2022/09/25 00:33:35;;;;;;;1.40;0.60;;;10.40;99.90;;;;;;5013918;28;20375;-77
2022/09/25 00:36:05;;;;;;;3.65;0.70;;;10.40;99.90;;;;;;5014145;28;20064;-77
2022/09/25 00:38:31;;;;;;;7.40;1.02;;;10.30;99.90;;;;;;5014374;28;20076;-77
2022/09/25 00:40:57;;;;;;;5.72;0.90;;;10.20;99.90;;;;;;5013895;28;20037;-77
2022/09/25 00:43:43;;;;;;;5.85;1.05;;;10.10;99.90;;;;;;5002971;28;20034;-77
2022/09/25 00:46:17;;;;;;;4.32;0.90;;;9.90;99.90;;;;;;5014366;28;20018;-77
2022/09/25 00:48:53;;;;;;;5.60;0.75;;;9.90;99.90;;;;;;5014102;28;20034;-77
2022/09/25 00:51:27;;;;;;;4.13;0.73;;;9.70;1.00;;;;;;4998777;28;20046;-77
2022/09/25 00:53:56;;;;;;;5.78;0.88;;;9.70;1.00;;;;;;4994296;28;20096;-78
2022/09/25 00:56:23;;;;;;;9.18;1.38;;;9.70;1.00;;;;;;4994162;28;20023;-77
2022/09/25 00:58:49;;;;;;;6.68;1.30;;;9.60;1.00;;;;;;4994085;28;20034;-77
2022/09/25 01:01:14;;;;;;;4.13;0.90;;;9.60;1.00;;;;;;4994128;28;20030;-77
2022/09/25 01:03:41;;;;;;;4.88;0.90;;;9.50;1.00;;;;;;4994090;28;20108;-77
2022/09/25 01:06:09;;;;;;;7.78;1.13;;;9.50;1.00;;;;;;4993943;28;20022;-77
2022/09/25 01:08:36;;;;;;;3.55;0.80;;;9.60;1.00;;;;;;4994203;28;20022;-77
2022/09/25 01:11:03;;;;;;;4.35;1.05;;;9.70;1.00;;;;;;5007785;28;20022;-77
2022/09/25 01:13:28;;;;;;;2.42;0.90;;;9.50;8.60;;;;;;5013486;28;20038;-77
2022/09/25 01:16:15;;;;;;;6.50;0.98;;;9.50;34.70;;;;;;5013118;28;20018;-77
2022/09/25 01:19:10;;;;;;;5.35;1.17;;;9.50;36.40;;;;;;5013572;28;20025;-78
2022/09/25 01:21:51;;;;;;;2.72;0.75;;;9.60;78.60;;;;;;4993982;28;20700;-77
2022/09/25 01:24:47;;;;;;;3.83;1.00;;;9.90;89.50;;;;;;5013403;28;20038;-77
2022/09/25 01:27:25;;;;;;;3.28;0.60;;;10.10;1.00;;;;;;5013435;28;20034;-77
2022/09/25 01:30:04;;;;;;;5.70;1.15;;;10.20;1.00;;;;;;5013240;28;20061;-78
2022/09/25 01:32:42;;;;;;;5.55;0.95;;;10.30;99.90;;;;;;4993707;28;20465;-77
2022/09/25 01:35:33;;;;;;;5.00;1.02;;;10.30;99.90;;;;;;4993437;28;20508;-77
2022/09/25 01:38:05;;;;;;;2.40;0.75;;;10.20;99.90;;;;;;4993570;28;20069;-77
2022/09/25 01:40:37;;;;;;;4.05;0.57;;;10.30;99.90;;;;;;4993423;28;20126;-78
2022/09/25 01:43:19;;;;;;;3.97;0.80;;;10.40;99.90;;;;;;4993385;28;20029;-77
2022/09/25 01:45:56;;;;;;;1.58;0.50;;;10.40;99.90;;;;;;4993447;28;20080;-77
2022/09/25 01:48:26;;;;;;;4.18;0.60;;;10.30;99.90;;;;;;5012628;28;20026;-77
2022/09/25 01:51:00;;;;;;;3.05;0.82;;;10.30;99.90;;;;;;5013356;28;20358;-77
2022/09/25 01:53:31;;;;;;;3.22;0.65;;;10.20;99.90;;;;;;5013694;28;20109;-78
2022/09/25 01:56:12;;;;;;;2.40;0.45;;;10.20;99.90;;;;;;5012853;28;20026;-77
2022/09/25 01:59:01;;;;;;;1.27;0.40;;;10.30;84.10;;;;;;5012761;28;20543;-77
2022/09/25 02:01:33;;;;;;;0.75;0.57;;;10.30;73.60;;;;;;4971801;28;20038;-77
2022/09/25 02:04:09;;;;;;;1.52;0.60;;;10.30;65.80;;;;;;4993015;28;20041;-77
2022/09/25 02:06:38;;;;;;;3.08;0.57;;;10.40;47.00;;;;;;4997555;28;20018;-77
2022/09/25 02:09:12;;;;;;;2.50;0.60;;;10.40;26.20;;;;;;5012596;28;20022;-77
2022/09/25 02:11:43;;;;;;;5.07;0.75;;;10.50;1.00;;;;;;5012679;28;21471;-78
2022/09/25 02:14:18;;;;;;;0.75;0.40;;;10.40;1.00;;;;;;5012657;28;20033;-77
2022/09/25 02:16:50;;;;;;;2.75;0.50;;;10.30;60.20;;;;;;5007944;28;20497;-78
2022/09/25 02:22:03;;;;;;;3.65;0.70;;;10.00;99.90;;;;;;4992887;28;20045;-77
2022/09/25 02:24:34;;;;;;;1.75;0.50;;;9.90;99.90;;;;;;4993094;28;20025;-77
2022/09/25 02:27:00;;;;;;;4.93;0.80;;;9.90;99.90;;;;;;4992836;28;20037;-77
2022/09/25 02:29:25;;;;;;;5.22;0.80;;;9.80;99.90;;;;;;4992852;28;20430;-77
2022/09/25 02:32:07;;;;;;;2.92;0.90;;;9.70;99.90;;;;;;4992774;28;20068;-77
2022/09/25 02:34:32;;;;;;;3.70;0.82;;;9.70;99.90;;;;;;4992436;28;20065;-77
2022/09/25 02:36:58;;;;;;;2.35;0.60;;;9.60;99.90;;;;;;4992819;28;20018;-78
2022/09/25 02:39:27;;;;;;;4.40;0.88;;;9.50;99.90;;;;;;4993116;28;20093;-78
2022/09/25 02:42:06;;;;;;;3.20;1.08;;;9.40;99.90;;;;;;5001574;28;20417;-77
2022/09/25 02:44:43;;;;;;;8.63;1.02;;;9.30;99.90;;;;;;5019278;28;20025;-78
2022/09/25 02:47:23;;;;;;;4.18;0.73;;;9.30;1.00;;;;;;5012306;28;20037;-77
2022/09/25 02:50:12;;;;;;;3.05;0.90;;;9.20;1.00;;;;;;5015984;28;20022;-78
2022/09/25 02:53:04;;;;;;;4.45;0.85;;;9.10;1.00;;;;;;5016177;28;20052;-77
2022/09/25 02:55:47;;;;;;;2.75;0.82;;;9.00;1.00;;;;;;5016145;28;20053;-77
2022/09/25 02:58:17;;;;;;;5.07;0.70;;;8.90;1.00;;;;;;4997341;28;20088;-77
2022/09/25 03:00:46;;;;;;;3.72;1.42;;;8.80;1.00;;;;;;4996520;28;20018;-77
2022/09/25 03:03:15;;;;;;;4.50;0.88;;;8.80;1.00;;;;;;4996202;28;20030;-77
2022/09/25 03:05:41;;;;;;;3.80;1.25;;;9.00;24.20;;;;;;4996227;28;20069;-77
2022/09/25 03:10:52;;;;;;;4.10;0.88;;;9.10;1.00;;;;;;4996596;28;20056;-78
2022/09/25 03:13:30;;;;;;;4.47;0.95;;;9.10;1.00;;;;;;5013352;28;20056;-77
2022/09/25 03:16:01;;;;;;;2.13;0.77;;;9.00;1.00;;;;;;5035387;28;20715;-77
2022/09/25 03:18:28;;;;;;;2.15;0.70;;;9.00;1.00;;;;;;5035390;28;20376;-78
2022/09/25 03:20:54;;;;;;;5.72;1.13;;;8.90;1.00;;;;;;5035534;28;20021;-77
2022/09/25 03:23:19;;;;;;;4.10;0.82;;;8.90;1.00;;;;;;5035205;28;20032;-77
2022/09/25 03:25:46;;;;;;;3.72;1.10;;;8.80;1.00;;;;;;5017414;28;20412;-77
2022/09/25 03:28:14;;;;;;;2.05;0.77;;;8.80;1.00;;;;;;5015841;28;20022;-77
2022/09/25 03:30:40;;;;;;;2.38;1.00;;;8.90;1.00;;;;;;5015368;28;20117;-77
2022/09/25 03:33:10;;;;;;;6.22;1.00;;;8.90;1.00;;;;;;5015192;28;20033;-77
2022/09/25 03:35:36;;;;;;;;;;;8.90;99.90;;;;;;5015791;28;20448;-77
2022/09/25 03:38:02;;;;;;;1.88;1.00;;;8.90;99.90;;;;;;5015124;28;19957;-78
2022/09/25 03:40:28;;;;;;;4.43;0.95;;;8.90;99.90;;;;;;5015326;28;20022;-78
2022/09/25 03:42:53;;;;;;;1.60;0.70;;;8.90;99.90;;;;;;5015194;28;20092;-78
2022/09/25 03:45:19;;;;;;;4.50;0.75;;;8.80;99.90;;;;;;5015219;28;20057;-77
2022/09/25 03:47:44;;;;;;;1.95;0.55;;;8.80;99.90;;;;;;5004277;28;20029;-77
2022/09/25 03:50:10;;;;;;;4.85;0.82;;;8.70;99.90;;;;;;5014920;28;20029;-77
2022/09/25 03:52:36;;;;;;;2.38;0.70;;;8.70;99.90;;;;;;5015116;28;20022;-77
2022/09/25 03:55:01;;;;;;;3.88;0.57;;;8.70;99.90;;;;;;5015056;28;20028;-77
2022/09/25 03:57:27;;;;;;;1.30;0.60;;;8.70;99.90;;;;;;5015003;28;20448;-77
2022/09/25 03:59:53;;;;;;;1.15;0.50;;;8.70;99.90;;;;;;5014958;28;20042;-78
2022/09/25 04:02:18;;;;;;;3.35;0.68;;;8.70;99.90;;;;;;5014772;28;20114;-77
2022/09/25 04:04:44;;;;;;;3.35;0.95;;;8.60;99.90;;;;;;5014687;28;20026;-77
2022/09/25 04:07:11;;;;;;;2.30;0.98;;;8.50;99.90;;;;;;5015017;28;20030;-77
2022/09/25 04:09:36;;;;;;;1.58;0.70;;;8.40;99.90;;;;;;5014663;28;20026;-77
2022/09/25 04:12:05;;;;;;;2.90;0.77;;;8.40;99.90;;;;;;5014588;28;20028;-77
2022/09/25 04:14:30;;;;;;;2.63;0.70;;;8.50;99.90;;;;;;5014708;28;20077;-77
2022/09/25 04:16:56;;;;;;;4.00;0.75;;;8.60;99.90;;;;;;5014477;28;20503;-78
2022/09/25 04:19:22;;;;;;;4.20;0.60;;;8.70;99.90;;;;;;5014601;28;20025;-78
2022/09/25 04:21:47;;;;;;;6.00;1.00;;;8.90;99.90;;;;;;5014742;28;20081;-77
2022/09/25 04:26:57;;;;;;;4.57;0.88;;;9.00;99.90;;;;;;5014608;28;20069;-78
2022/09/25 04:29:23;;;;;;;2.58;0.80;;;9.00;99.90;;;;;;5014440;28;20030;-78
2022/09/25 04:33:44;;;;;;;2.55;0.95;;;9.00;99.90;;;;;;5014977;28;20049;-78
2022/09/25 04:34:34;;;;;;;1.80;0.88;;;9.00;99.90;;;;;;5014199;28;20097;-78
2022/09/25 04:37:00;;;;;;;2.35;0.70;;;8.80;99.90;;;;;;5014398;28;20411;-78
2022/09/25 04:39:26;;;;;;;1.30;0.70;;;8.80;99.90;;;;;;5014233;28;20528;-78
2022/09/25 04:41:52;;;;;;;2.10;0.80;;;8.60;99.90;;;;;;5013861;28;20026;-78
2022/09/25 04:44:17;;;;;;;3.58;1.20;;;8.50;99.90;;;;;;5014077;28;20025;-78
2022/09/25 04:46:43;;;;;;;3.85;0.85;;;8.40;1.00;;;;;;5014231;28;20097;-78
2022/09/25 04:49:08;;;;;;;1.33;0.70;;;8.30;1.00;;;;;;5014098;28;20037;-78
2022/09/25 04:51:34;;;;;;;3.45;1.00;;;8.30;1.00;;;;;;5014139;28;20029;-78
2022/09/25 04:53:59;;;;;;;2.88;0.73;;;8.20;1.00;;;;;;5014077;28;20034;-78
2022/09/25 04:56:25;;;;;;;9.15;0.95;;;8.20;1.00;;;;;;5013959;28;20609;-78
2022/09/25 04:58:51;;;;;;;4.15;0.80;;;8.20;1.00;;;;;;5013589;28;20485;-78
2022/09/25 05:01:19;;;;;;;2.83;0.82;;;8.40;1.00;;;;;;5013320;28;20025;-78
2022/09/25 05:03:49;;;;;;;2.60;1.20;;;8.50;2.00;;;;;;5013608;28;20420;-78
2022/09/25 05:06:15;;;;;;;4.75;1.00;;;8.50;15.20;;;;;;5031067;28;20041;-78
2022/09/25 05:08:40;;;;;;;4.18;0.90;;;8.30;1.00;;;;;;5033090;28;20728;-78
2022/09/25 05:11:07;;;;;;;2.80;1.10;;;8.30;7.40;;;;;;5032773;28;20021;-78
2022/09/25 05:13:32;;;;;;;1.77;0.80;;;8.20;1.00;;;;;;5014788;28;20030;-78
2022/09/25 05:15:58;;;;;;;2.30;0.85;;;8.10;1.00;;;;;;5013429;28;20549;-77
2022/09/25 05:18:24;;;;;;;4.10;0.80;;;8.10;1.00;;;;;;5013435;28;20029;-78
2022/09/25 05:20:52;;;;;;;2.13;1.10;;;8.20;18.40;;;;;;5013354;28;20084;-78
2022/09/25 05:23:17;;;;;;;1.85;1.10;;;8.20;46.40;;;;;;5013501;28;20153;-78
2022/09/25 05:25:43;;;;;;;4.25;1.00;;;8.20;64.00;;;;;;5011646;28;20109;-78
2022/09/25 05:28:09;;;;;;;1.67;0.85;;;8.20;56.50;;;;;;5013139;28;20022;-78
2022/09/25 05:30:35;;;;;;;6.10;1.00;;;8.10;48.90;;;;;;5013090;28;20018;-78
2022/09/25 05:33:01;;;;;;;3.50;1.02;;;8.00;20.70;;;;;;5013147;28;20248;-78
2022/09/25 05:35:29;;;;;;;2.15;1.08;;;8.00;21.70;;;;;;5012857;28;20084;-78
2022/09/25 05:37:54;;;;;;;2.85;1.02;;;8.00;29.50;;;;;;5012996;28;20038;-78
2022/09/25 05:40:20;;;;;;;2.97;0.98;;;8.10;52.30;;;;;;5012969;28;20029;-78
2022/09/25 05:42:46;;;;;;;3.55;0.90;;;8.20;70.10;;;;;;5012971;28;20030;-78
2022/09/25 05:45:16;;;;;;;2.55;0.90;;;8.10;63.60;;;;;;5017301;28;20026;-78
2022/09/25 05:47:42;;;;;;;4.28;1.00;;;8.10;62.80;;;;;;5020860;28;20464;-78
2022/09/25 05:50:11;;;;;;;3.70;1.10;;;8.10;53.30;;;;;;5012762;28;20026;-78
2022/09/25 05:52:37;;;;;;;4.47;1.30;;;8.00;40.30;;;;;;5011500;28;20061;-78
2022/09/25 05:55:05;;;;;;;4.63;1.50;;;8.00;27.00;;;;;;5031392;28;20034;-78
2022/09/25 05:57:31;;;;;;;2.85;1.25;;;8.00;42.80;;;;;;5016001;28;20033;-78
2022/09/25 05:59:58;;;;;;;3.83;1.25;;;8.00;66.40;;;;;;4998274;28;20034;-78
2022/09/25 06:02:24;;;;;;;4.03;1.73;;;8.00;56.20;;;;;;5016474;28;20088;-78
2022/09/25 06:04:49;;;;;;;1.52;1.40;;;8.10;53.60;;;;;;5032384;28;20151;-78
2022/09/25 06:07:15;;;;;;;4.13;1.27;;;8.20;56.50;;;;;;5027511;28;20108;-78
2022/09/25 06:09:40;;;;;;;3.45;1.23;;;8.20;52.90;;;;;;5013514;28;20476;-78
2022/09/25 06:12:06;;;;;;;2.50;1.25;;;8.30;42.90;;;;;;5013289;28;20485;-78
2022/09/25 06:14:34;;;;;;;3.92;1.65;;;8.30;27.50;;;;;;5009780;28;20029;-78
2022/09/25 06:17:00;;;;;;;3.90;1.42;;;8.30;6.90;;;;;;5018233;28;20080;-78
2022/09/25 06:19:28;;;;;;;4.00;1.50;;;8.40;8.50;;;;;;5012641;28;20449;-78
2022/09/25 06:21:53;;;;;;;7.43;1.45;;;8.50;1.00;;;;;;5012437;28;20076;-78
2022/09/25 06:24:19;;;;;;;5.20;1.63;;;8.40;1.00;;;;;;5011730;28;20031;-78
2022/09/25 06:26:46;;;;;;;6.40;1.30;;;8.50;1.00;;;;;;5012197;28;20076;-78
2022/09/25 06:29:11;;;;;;;3.72;1.60;;;8.50;1.00;;;;;;5012660;28;20029;-78
2022/09/25 06:31:38;;;;;;;5.15;1.60;;;8.70;1.00;;;;;;5012469;28;20018;-78
2022/09/25 06:34:04;;;;;;;3.05;1.30;;;8.70;1.00;;;;;;5012036;28;20050;-78
2022/09/25 06:36:31;;;;;;;3.08;1.58;;;8.80;1.00;;;;;;5012644;28;20056;-78
2022/09/25 06:38:56;;;;;;;5.93;2.25;;;9.00;1.00;;;;;;5012637;28;20030;-78
2022/09/25 06:41:23;;;;;;;5.93;1.80;;;9.00;1.00;;;;;;5013122;28;20021;-78
2022/09/25 06:43:50;;;;;;;3.22;1.52;;;9.10;1.00;;;;;;5023172;28;20026;-78
2022/09/25 06:46:17;;;;;;;5.82;1.77;;;9.30;1.00;;;;;;4992630;28;20077;-78
2022/09/25 06:48:43;;;;;;;6.95;1.70;;;9.30;1.00;;;;;;4992909;28;20034;-78
2022/09/25 06:51:08;;;;;;;6.97;1.80;;;9.60;1.00;;;;;;4992599;28;20022;-78
2022/09/25 06:53:34;;;;;;;5.57;1.83;;;9.70;1.00;;;;;;4992568;28;20038;-78
2022/09/25 06:56:00;;;;;;;5.60;1.77;;;9.90;1.00;;;;;;4992520;28;20460;-78
2022/09/25 06:58:27;;;;;;;5.80;2.15;;;10.10;1.00;;;;;;5012443;28;20551;-78
2022/09/25 07:00:55;;;;;;;6.85;2.53;;;12.50;1.00;;;;;;5012043;28;20049;-78
2022/09/25 07:06:07;;;;;;;4.93;1.88;;;21.10;99.90;;;;;;4995612;28;20036;-78
2022/09/25 07:08:33;;;;;;;4.75;1.90;;;24.70;71.70;;;;;;5012102;28;20472;-78
2022/09/25 07:11:00;;;;;;;5.20;1.70;;;26.90;24.00;;;;;;5012201;28;20037;-78
2022/09/25 07:13:28;;;;;;;4.07;1.60;;;28.00;2.40;;;;;;5012168;28;20053;-78
2022/09/25 07:15:56;;;;;;;3.20;1.50;;;29.30;1.00;;;;;;5011943;28;20022;-78
2022/09/25 07:18:23;;;;;;;6.60;1.60;;;30.30;1.00;;;;;;5011815;28;20030;-78
2022/09/25 07:20:49;;;;;;;5.78;1.05;;;31.70;1.00;;;;;;5012052;28;20048;-79
2022/09/25 07:23:17;;;;;;;3.45;1.02;;;32.00;1.00;;;;;;5011820;28;20156;-78
2022/09/25 07:25:44;;;;;;;1.23;0.75;;;32.90;1.00;;;;;;5012020;28;20029;-78
2022/09/25 07:28:13;;;;;;;4.00;0.73;;;33.60;1.00;;;;;;5011783;28;20113;-78
2022/09/25 07:30:42;;;;;;;3.10;0.65;;;34.00;1.00;;;;;;5010561;28;20477;-78
2022/09/25 07:33:10;;;;;;;2.53;0.93;;;34.80;1.00;;;;;;5023180;28;20029;-78
2022/09/25 07:35:36;;;;;;;3.92;1.05;;;35.10;1.00;;;;;;5028097;28;20072;-78
2022/09/25 07:38:03;;;;;;;3.42;0.77;;;36.10;1.00;;;;;;5015275;28;20030;-79
2022/09/25 07:40:32;;;;;;;3.65;0.98;;;36.60;1.00;;;;;;5015314;28;20062;-79
2022/09/25 07:42:59;;;;;;;3.47;0.57;;;37.00;1.00;;;;;;5015360;28;20362;-79
2022/09/25 07:45:24;;;;;;;3.97;0.60;;;38.90;1.00;;;;;;5015209;28;20022;-79
2022/09/25 07:47:54;;;;;;;2.92;0.50;;;38.50;1.00;;;;;;5013797;28;20050;-79
2022/09/25 07:50:19;;;;;;;4.22;0.50;;;38.30;1.00;;;;;;5022612;28;20022;-78
2022/09/25 07:52:45;;;;;;;2.38;0.40;;;39.50;1.00;;;;;;5019341;28;20040;-79
2022/09/25 07:55:10;;;;;;;3.55;0.57;;;40.00;1.00;;;;;;5015036;28;20014;-78
2022/09/25 07:57:36;;;;;;;2.33;0.60;;;35.90;1.00;;;;;;5014761;28;20104;-79
2022/09/25 08:00:03;;;;;;;2.72;0.40;;;37.20;1.00;;;;;;5014780;28;20099;-79
2022/09/25 08:02:29;;;;;;;2.40;0.60;;;36.40;1.00;;;;;;5014983;28;20026;-79
2022/09/25 08:04:54;;;;;;;2.22;0.32;;;34.50;1.00;;;;;;5027604;28;20024;-79
2022/09/25 08:07:20;;;;;;;2.55;0.40;;;31.10;1.00;;;;;;5027695;28;20017;-79
2022/09/25 08:09:45;;;;;;;1.25;0.47;;;28.10;1.00;;;;;;4993757;28;20110;-79
2022/09/25 08:12:12;;;;;;;3.58;0.60;;;25.80;1.00;;;;;;5010880;28;20026;-78
2022/09/25 08:14:37;;;;;;;2.58;0.47;;;24.00;1.00;;;;;;5021213;28;20025;-78
2022/09/25 08:17:03;;;;;;;3.47;0.70;;;22.50;1.00;;;;;;5034216;28;20021;-79
2022/09/25 08:19:28;;;;;;;1.92;0.28;;;21.00;1.00;;;;;;5032921;28;20543;-79
2022/09/25 08:21:54;;;;;;;1.48;0.30;;;19.20;1.00;;;;;;5014225;28;20022;-79
2022/09/25 08:24:19;;;;;;;3.40;0.32;;;18.40;3.60;;;;;;5014236;28;20046;-79
2022/09/25 08:26:45;;;;;;;1.52;0.60;;;17.80;19.40;;;;;;5016359;28;20022;-79
2022/09/25 08:29:11;;;;;;;3.22;0.65;;;17.30;34.10;;;;;;5014027;28;20088;-79
2022/09/25 08:31:37;;;;;;;2.10;0.47;;;16.90;68.20;;;;;;5014384;28;20026;-79
2022/09/25 08:34:02;;;;;;;1.50;0.57;;;16.70;95.10;;;;;;5013776;28;20503;-79
2022/09/25 08:36:28;;;;;;;2.50;0.40;;;16.20;95.10;;;;;;5026958;28;20033;-79
2022/09/25 08:38:55;;;;;;;3.17;0.70;;;16.30;99.90;;;;;;5033971;28;20100;-79
2022/09/25 08:41:24;;;;;;;3.83;0.60;;;16.40;99.90;;;;;;5034254;28;20029;-79
2022/09/25 08:44:05;;;;;;;2.70;0.40;;;16.40;99.90;;;;;;5033305;28;20043;-79
2022/09/25 08:49:29;;;;;;;4.53;0.60;;;16.70;99.90;;;;;;5014280;28;20040;-79
2022/09/25 08:52:00;;;;;;;1.92;0.80;;;16.90;88.60;;;;;;5021558;28;20021;-79
2022/09/25 08:54:29;;;;;;;1.15;0.50;;;17.00;81.20;;;;;;5033329;28;20026;-79
2022/09/25 08:57:11;;;;;;;2.85;0.65;;;19.10;56.50;;;;;;5014019;28;20021;-79
2022/09/25 08:59:41;;;;;;;1.02;0.40;;;25.70;1.00;;;;;;5014175;28;20034;-79
2022/09/25 09:02:20;;;;;;;1.17;0.45;;;30.80;1.00;;;;;;5014022;28;20527;-79
2022/09/25 09:04:55;;;;;;;1.48;0.30;;;33.60;1.00;;;;;;4995548;28;20057;-79
2022/09/25 09:07:24;;;;;;;1.13;0.40;;;35.20;1.00;;;;;;5006824;28;20522;-79
2022/09/25 09:10:00;;;;;;;1.45;0.30;;;36.30;1.00;;;;;;5000885;28;20022;-79
2022/09/25 09:12:41;;;;;;;0.63;0.50;;;36.70;1.00;;;;;;5006658;28;20033;-79
2022/09/25 09:15:45;;;;;;;0.63;0.35;;;38.20;1.00;;;;;;5033476;28;20361;-79
2022/09/25 09:18:24;;;;;;;4.20;0.40;;;39.50;1.00;;;;;;5033539;28;20460;-79
2022/09/25 09:20:51;;;;;;;1.33;0.30;;;32.50;1.00;;;;;;5033474;28;20026;-79
2022/09/25 09:23:20;;;;;;;3.13;0.30;;;28.50;1.00;;;;;;5033262;28;20109;-79
2022/09/25 09:25:51;;;;;;;2.25;0.40;;;23.70;1.00;;;;;;5033076;28;20036;-79
2022/09/25 09:28:35;;;;;;;3.13;0.32;;;22.20;1.00;;;;;;5033230;28;20079;-79
2022/09/25 09:31:22;;;;;;;1.58;0.30;;;21.40;1.00;;;;;;5033268;28;20025;-79
2022/09/25 09:34:02;;;;;;;3.22;0.50;;;20.00;1.00;;;;;;5026413;28;20029;-79
2022/09/25 09:36:42;;;;;;;1.73;0.43;;;19.30;1.00;;;;;;5013157;28;20472;-79
2022/09/25 09:39:18;;;;;;;2.17;0.47;;;18.60;1.00;;;;;;4993850;28;20030;-79
2022/09/25 09:42:09;;;;;;;1.00;0.38;;;17.60;4.50;;;;;;4993458;28;20137;-79
2022/09/25 09:44:52;;;;;;;1.17;0.40;;;17.30;24.10;;;;;;4993672;28;20099;-79
2022/09/25 09:47:58;;;;;;;2.03;0.55;;;17.10;23.40;;;;;;5001723;28;20018;-79
2022/09/25 09:50:52;;;;;;;5.38;1.17;;;17.50;27.20;;;;;;5012634;28;20045;-79
2022/09/25 09:53:30;;;;;;;17.02;7.22;;;18.00;22.70;;;;;;5011013;28;20046;-79
2022/09/25 09:56:04;;;;;;;18.60;9.07;;;19.70;1.00;;;;;;5012974;28;20025;-78
2022/09/25 09:58:44;;;;;;;2.20;0.95;;;20.20;1.00;;;;;;5012744;28;20104;-79
2022/09/25 10:01:12;;;;;;;7.10;3.33;;;21.30;1.00;;;;;;5012772;28;20034;-79
2022/09/25 10:03:39;;;;;;;4.40;1.58;;;27.00;1.00;;;;;;5012844;28;20660;-79
2022/09/25 10:06:10;;;;;;;7.63;3.35;;;29.20;1.00;;;;;;5012722;28;20091;-79
2022/09/25 10:08:36;;;;;;;2.53;1.17;;;29.30;1.00;;;;;;5011718;28;20022;-78
2022/09/25 10:11:09;;;;;;;1.92;0.75;;;29.60;1.00;;;;;;5012814;28;20064;-79
2022/09/25 10:13:37;;;;;;;1.52;0.40;;;30.60;1.00;;;;;;5001927;28;20058;-79
2022/09/25 10:16:10;;;;;;;4.43;0.80;;;31.10;1.00;;;;;;5013748;28;20033;-79
2022/09/25 10:19:05;;;;;;;4.82;0.70;;;30.80;1.00;;;;;;5013079;28;20029;-79
2022/09/25 10:21:41;;;;;;;1.27;0.47;;;29.50;1.00;;;;;;5005742;28;20112;-79
2022/09/25 10:24:06;;;;;;;2.92;0.60;;;29.80;1.00;;;;;;5012543;28;20069;-79
2022/09/25 10:26:37;;;;;;;4.20;1.20;;;27.60;1.00;;;;;;5012613;28;20080;-79
2022/09/25 10:29:08;;;;;;;2.22;0.55;;;24.90;1.00;;;;;;5012382;28;20026;-79
2022/09/25 10:31:43;;;;;;;2.63;0.45;;;22.70;1.00;;;;;;5012292;28;20037;-78
2022/09/25 10:34:12;;;;;;;1.45;0.30;;;20.70;1.00;;;;;;4999476;28;20493;-79
2022/09/25 10:36:37;;;;;;;3.88;0.50;;;19.30;1.00;;;;;;5012321;28;20105;-79
2022/09/25 10:39:04;;;;;;;2.45;0.40;;;18.90;1.00;;;;;;5012392;28;20030;-78
2022/09/25 10:41:40;;;;;;;1.50;0.40;;;18.90;1.00;;;;;;5012459;28;20021;-78
2022/09/25 10:44:36;;;;;;;3.08;0.50;;;18.30;1.00;;;;;;5012380;28;20458;-78
2022/09/25 10:50:20;;;;;;;4.27;0.60;;;18.40;1.00;;;;;;5012211;28;20133;-78
2022/09/25 10:53:00;;;;;;;6.50;0.93;;;18.40;1.00;;;;;;5012364;28;20037;-78
2022/09/25 10:55:36;;;;;;;2.38;0.45;;;18.10;1.00;;;;;;5012468;28;20026;-78
2022/09/25 10:58:08;;;;;;;3.60;0.60;;;18.00;1.00;;;;;;5012198;28;20018;-78
2022/09/25 11:00:45;;;;;;;2.45;0.63;;;18.00;3.20;;;;;;5012118;28;20022;-78
2022/09/25 11:03:31;;;;;;;3.38;0.40;;;18.50;3.70;;;;;;5012065;28;20041;-78
2022/09/25 11:06:04;;;;;;;6.10;0.60;;;19.10;1.00;;;;;;5012076;28;20026;-78
2022/09/25 11:08:34;;;;;;;3.15;0.68;;;19.20;19.10;;;;;;5012226;28;20053;-78
2022/09/25 11:11:01;;;;;;;3.45;0.50;;;19.40;1.00;;;;;;5014536;28;20022;-78
2022/09/25 11:13:48;;;;;;;1.35;0.50;;;19.20;1.00;;;;;;5016105;28;20030;-79
2022/09/25 11:16:13;;;;;;;2.05;0.30;;;18.30;1.00;;;;;;5016324;28;20113;-78
2022/09/25 11:18:48;;;;;;;2.92;0.50;;;17.50;1.00;;;;;;5015756;28;20488;-78
2022/09/25 11:21:32;;;;;;;4.68;0.65;;;17.10;1.00;;;;;;5015621;28;20018;-78
2022/09/25 11:24:25;;;;;;;4.22;0.55;;;17.10;1.00;;;;;;5015368;28;20089;-78
2022/09/25 11:27:17;;;;;;;2.28;0.60;;;16.70;1.00;;;;;;5015838;28;20543;-78
2022/09/25 11:29:57;;;;;;;2.88;0.68;;;16.30;1.00;;;;;;5003608;28;20061;-78
2022/09/25 11:32:43;;;;;;;2.97;0.40;;;16.20;1.00;;;;;;5015367;28;20033;-78
2022/09/25 11:35:29;;;;;;;3.15;0.40;;;16.50;1.00;;;;;;5005706;28;20046;-78
2022/09/25 11:41:46;;;;;;;4.20;0.60;;;17.10;1.00;;;;;;4995585;28;20101;-78
2022/09/25 11:44:30;;;;;;;1.13;0.20;;;17.40;1.00;;;;;;4995429;28;20053;-78
2022/09/25 11:47:26;;;;;;;0.10;0.10;;;17.80;1.00;;;;;;5010649;28;20018;-78
2022/09/25 11:49:53;;;;;;;3.10;0.50;;;17.70;1.00;;;;;;5015322;28;20014;-78
2022/09/25 11:52:39;;;;;;;1.00;0.20;;;17.70;1.00;;;;;;5015059;28;20028;-78
2022/09/25 11:55:40;;;;;;;4.88;0.30;;;17.70;1.00;;;;;;5015046;28;20021;-78
2022/09/25 11:58:21;;;;;;;2.42;0.30;;;17.60;1.00;;;;;;5006563;28;20034;-78
2022/09/25 12:01:13;;;;;;;3.60;0.40;;;17.30;1.00;;;;;;5014987;28;20676;-78
2022/09/25 12:04:06;;;;;;;3.75;0.35;;;16.90;1.00;;;;;;4995233;28;20073;-78
2022/09/25 12:07:04;;;;;;;3.10;0.40;;;16.90;1.00;;;;;;5014919;28;20028;-78
2022/09/25 12:09:41;;;;;;;0.52;0.20;;;17.60;1.00;;;;;;5015057;28;20022;-78
2022/09/25 12:12:19;;;;;;;2.17;0.32;;;17.90;1.00;;;;;;5013320;28;20030;-78
2022/09/25 12:14:56;;;;;;;4.47;0.40;;;17.90;1.00;;;;;;4993997;28;20026;-78
2022/09/25 12:17:47;;;;;;;1.38;0.20;;;18.10;1.00;;;;;;5024031;28;20025;-78
2022/09/25 12:20:36;;;;;;;4.55;0.30;;;17.60;1.00;;;;;;5033465;28;20025;-78
2022/09/25 12:23:13;;;;;;;2.30;0.30;;;17.20;1.00;;;;;;5011976;28;20064;-78
2022/09/25 12:25:49;;;;;;;4.22;0.43;;;17.30;1.00;;;;;;5034265;28;20025;-78
2022/09/25 12:28:29;;;;;;;2.13;0.35;;;17.60;1.00;;;;;;5032695;28;20376;-77
2022/09/25 12:31:13;;;;;;;2.88;0.30;;;17.80;1.00;;;;;;5032804;28;20022;-78
2022/09/25 12:34:03;;;;;;;5.20;0.75;;;17.80;1.00;;;;;;5030983;28;20021;-78
2022/09/25 12:36:53;;;;;;;0.82;0.30;;;17.50;1.00;;;;;;5014384;28;20489;-78
2022/09/25 12:39:39;;;;;;;1.33;0.35;;;17.20;1.00;;;;;;5014348;28;20362;-78
2022/09/25 12:42:37;;;;;;;2.10;0.50;;;17.00;1.00;;;;;;5014101;28;20061;-78
2022/09/25 12:45:12;;;;;;;2.00;0.50;;;17.00;1.00;;;;;;5014181;28;20081;-78
2022/09/25 12:48:05;;;;;;;2.35;0.30;;;17.00;1.00;;;;;;5004017;28;20054;-78
2022/09/25 12:50:50;;;;;;;2.58;0.32;;;16.90;1.00;;;;;;4994469;28;20054;-78
2022/09/25 12:53:27;;;;;;;1.98;0.35;;;17.00;1.00;;;;;;4994490;28;20069;-77
2022/09/25 12:56:03;;;;;;;1.25;0.43;;;17.10;1.00;;;;;;4994316;28;20169;-78
2022/09/25 12:58:56;;;;;;;6.40;0.40;;;17.50;1.00;;;;;;4994294;28;20030;-78
2022/09/25 13:01:24;;;;;;;1.75;0.28;;;17.90;1.00;;;;;;4994326;28;20101;-77
2022/09/25 13:04:08;;;;;;;1.55;0.40;;;18.50;1.00;;;;;;5015607;28;20026;-78
2022/09/25 13:06:48;;;;;;;2.88;0.30;;;18.50;1.00;;;;;;4994198;28;20026;-78
2022/09/25 13:09:25;;;;;;;4.13;0.40;;;18.70;1.00;;;;;;5009323;28;20030;-77
2022/09/25 13:11:58;;;;;;;2.05;0.30;;;18.40;1.00;;;;;;5013823;28;20033;-78
2022/09/25 13:14:35;;;;;;;3.58;0.40;;;18.30;1.00;;;;;;5013468;28;20026;-77
2022/09/25 13:17:01;;;;;;;2.83;0.40;;;18.70;1.00;;;;;;5013553;28;20377;-78
2022/09/25 13:19:32;;;;;;;1.33;0.45;;;19.10;1.00;;;;;;5013411;28;20457;-78
2022/09/25 13:22:11;;;;;;;0.57;0.20;;;18.80;1.00;;;;;;5013442;28;20056;-78
2022/09/25 13:24:42;;;;;;;1.73;0.30;;;18.10;1.00;;;;;;5021731;28;20033;-78
2022/09/25 13:27:14;;;;;;;2.30;0.40;;;17.60;1.00;;;;;;5033136;28;20522;-78
2022/09/25 13:29:40;;;;;;;1.30;0.40;;;17.60;1.00;;;;;;5033081;28;20036;-78
2022/09/25 13:32:12;;;;;;;1.10;0.30;;;17.60;1.00;;;;;;5032485;28;20017;-77
2022/09/25 13:34:40;;;;;;;3.00;0.30;;;17.90;1.00;;;;;;5021945;28;20053;-77
2022/09/25 13:37:09;;;;;;;5.07;0.50;;;18.10;1.00;;;;;;5013175;28;20113;-78
2022/09/25 13:42:36;;;;;;;1.10;0.28;;;17.80;1.00;;;;;;5013071;28;20033;-77
2022/09/25 13:45:20;;;;;;;0.82;0.20;;;17.60;1.00;;;;;;5013176;28;20026;-78
2022/09/25 13:47:59;;;;;;;2.10;0.30;;;17.60;1.00;;;;;;5012988;28;20094;-78
2022/09/25 13:50:31;;;;;;;2.35;0.40;;;17.80;1.00;;;;;;5013173;28;20034;-77